sensor_id;sensor_type;location;lat;lon;timestamp;temperature;humidity
31747;DHT22;18319;48.974;8.462;2023-04-01T00:00:57;9.80;99.90
31747;DHT22;18319;48.974;8.462;2023-04-01T00:03:26;9.70;99.90
31747;DHT22;18319;48.974;8.462;2023-04-01T00:05:53;9.60;99.90
31747;DHT22;18319;48.974;8.462;2023-04-01T00:08:20;9.70;99.90
31747;DHT22;18319;48.974;8.462;2023-04-01T00:10:47;9.70;99.90
31747;DHT22;18319;48.974;8.462;2023-04-01T00:13:14;9.70;99.90
31747;DHT22;18319;48.974;8.462;2023-04-01T00:15:42;9.60;99.90
31747;DHT22;18319;48.974;8.462;2023-04-01T00:18:08;9.60;99.90
31747;DHT22;18319;48.974;8.462;2023-04-01T00:20:37;9.60;99.90
31747;DHT22;18319;48.974;8.462;2023-04-01T00:23:04;9.60;99.90
31747;DHT22;18319;48.974;8.462;2023-04-01T00:25:31;9.60;99.90
31747;DHT22;18319;48.974;8.462;2023-04-01T00:27:58;9.70;99.90
31747;DHT22;18319;48.974;8.462;2023-04-01T00:30:24;9.60;99.90
31747;DHT22;18319;48.974;8.462;2023-04-01T00:32:51;9.60;99.90
31747;DHT22;18319;48.974;8.462;2023-04-01T00:35:18;9.70;99.90
31747;DHT22;18319;48.974;8.462;2023-04-01T00:37:46;9.80;99.90
31747;DHT22;18319;48.974;8.462;2023-04-01T00:40:24;9.80;99.90
31747;DHT22;18319;48.974;8.462;2023-04-01T00:42:51;9.90;99.90
31747;DHT22;18319;48.974;8.462;2023-04-01T00:45:28;10.00;99.90
31747;DHT22;18319;48.974;8.462;2023-04-01T00:47:56;10.00;99.90
31747;DHT22;18319;48.974;8.462;2023-04-01T00:50:25;10.00;99.90
31747;DHT22;18319;48.974;8.462;2023-04-01T00:52:54;10.00;99.90
31747;DHT22;18319;48.974;8.462;2023-04-01T00:55:21;9.90;99.90
31747;DHT22;18319;48.974;8.462;2023-04-01T00:57:51;9.90;99.90
31747;DHT22;18319;48.974;8.462;2023-04-01T01:00:19;9.80;99.90
31747;DHT22;18319;48.974;8.462;2023-04-01T01:02:48;9.80;99.90
31747;DHT22;18319;48.974;8.462;2023-04-01T01:05:17;9.80;99.90
31747;DHT22;18319;48.974;8.462;2023-04-01T01:07:51;9.90;99.90
31747;DHT22;18319;48.974;8.462;2023-04-01T01:10:24;9.90;99.90
31747;DHT22;18319;48.974;8.462;2023-04-01T01:12:59;10.00;99.90
31747;DHT22;18319;48.974;8.462;2023-04-01T01:15:32;10.10;99.90
31747;DHT22;18319;48.974;8.462;2023-04-01T01:18:05;10.10;99.90
31747;DHT22;18319;48.974;8.462;2023-04-01T01:20:51;10.10;99.90
31747;DHT22;18319;48.974;8.462;2023-04-01T01:23:37;10.20;99.90
31747;DHT22;18319;48.974;8.462;2023-04-01T01:26:23;10.10;99.90
31747;DHT22;18319;48.974;8.462;2023-04-01T01:29:02;10.20;99.90
31747;DHT22;18319;48.974;8.462;2023-04-01T01:31:38;10.20;99.90
31747;DHT22;18319;48.974;8.462;2023-04-01T01:34:16;10.20;99.90
31747;DHT22;18319;48.974;8.462;2023-04-01T01:36:49;10.20;99.90
31747;DHT22;18319;48.974;8.462;2023-04-01T01:39:20;10.20;99.90
31747;DHT22;18319;48.974;8.462;2023-04-01T01:41:52;10.10;99.90
31747;DHT22;18319;48.974;8.462;2023-04-01T01:44:21;10.10;99.90
31747;DHT22;18319;48.974;8.462;2023-04-01T01:46:49;10.10;99.90
31747;DHT22;18319;48.974;8.462;2023-04-01T01:49:17;10.10;99.90
31747;DHT22;18319;48.974;8.462;2023-04-01T01:51:46;10.10;99.90
31747;DHT22;18319;48.974;8.462;2023-04-01T01:54:14;10.00;99.90
31747;DHT22;18319;48.974;8.462;2023-04-01T01:56:43;10.00;99.90
31747;DHT22;18319;48.974;8.462;2023-04-01T01:59:12;10.00;99.90
31747;DHT22;18319;48.974;8.462;2023-04-01T02:01:42;10.00;99.90
31747;DHT22;18319;48.974;8.462;2023-04-01T02:04:13;10.00;99.90
31747;DHT22;18319;48.974;8.462;2023-04-01T02:06:44;10.00;99.90
31747;DHT22;18319;48.974;8.462;2023-04-01T02:09:15;10.00;99.90
31747;DHT22;18319;48.974;8.462;2023-04-01T02:11:47;9.90;99.90
31747;DHT22;18319;48.974;8.462;2023-04-01T02:14:17;9.80;99.90
31747;DHT22;18319;48.974;8.462;2023-04-01T02:16:49;9.80;99.90
31747;DHT22;18319;48.974;8.462;2023-04-01T02:19:17;9.80;99.90
31747;DHT22;18319;48.974;8.462;2023-04-01T02:21:49;9.80;99.90
31747;DHT22;18319;48.974;8.462;2023-04-01T02:24:19;9.80;99.90
31747;DHT22;18319;48.974;8.462;2023-04-01T02:26:48;9.80;99.90
31747;DHT22;18319;48.974;8.462;2023-04-01T02:29:17;9.80;99.90
31747;DHT22;18319;48.974;8.462;2023-04-01T02:31:44;9.80;99.90
31747;DHT22;18319;48.974;8.462;2023-04-01T02:34:12;9.90;99.90
31747;DHT22;18319;48.974;8.462;2023-04-01T02:36:39;9.90;99.90
31747;DHT22;18319;48.974;8.462;2023-04-01T02:39:06;9.90;99.90
31747;DHT22;18319;48.974;8.462;2023-04-01T02:41:40;9.90;99.90
31747;DHT22;18319;48.974;8.462;2023-04-01T02:44:07;10.00;99.90
31747;DHT22;18319;48.974;8.462;2023-04-01T02:46:34;10.00;99.90
31747;DHT22;18319;48.974;8.462;2023-04-01T02:49:01;10.00;99.90
31747;DHT22;18319;48.974;8.462;2023-04-01T02:51:28;9.90;99.90
31747;DHT22;18319;48.974;8.462;2023-04-01T02:53:55;9.90;99.90
31747;DHT22;18319;48.974;8.462;2023-04-01T02:56:21;9.80;99.90
31747;DHT22;18319;48.974;8.462;2023-04-01T02:58:50;9.80;99.90
31747;DHT22;18319;48.974;8.462;2023-04-01T03:01:18;9.80;99.90
31747;DHT22;18319;48.974;8.462;2023-04-01T03:03:46;9.90;99.90
31747;DHT22;18319;48.974;8.462;2023-04-01T03:06:14;9.90;99.90
31747;DHT22;18319;48.974;8.462;2023-04-01T03:08:41;9.90;99.90
31747;DHT22;18319;48.974;8.462;2023-04-01T03:11:09;9.90;99.90
31747;DHT22;18319;48.974;8.462;2023-04-01T03:13:36;9.90;99.90
31747;DHT22;18319;48.974;8.462;2023-04-01T03:16:05;9.90;99.90
31747;DHT22;18319;48.974;8.462;2023-04-01T03:18:32;9.90;99.90
31747;DHT22;18319;48.974;8.462;2023-04-01T03:21:13;9.90;99.90
31747;DHT22;18319;48.974;8.462;2023-04-01T03:23:39;9.90;99.90
31747;DHT22;18319;48.974;8.462;2023-04-01T03:26:06;10.00;99.90
31747;DHT22;18319;48.974;8.462;2023-04-01T03:28:33;10.00;99.90
31747;DHT22;18319;48.974;8.462;2023-04-01T03:31:00;10.00;99.90
31747;DHT22;18319;48.974;8.462;2023-04-01T03:33:28;10.00;99.90
31747;DHT22;18319;48.974;8.462;2023-04-01T03:35:55;10.00;99.90
31747;DHT22;18319;48.974;8.462;2023-04-01T03:38:21;10.10;99.90
31747;DHT22;18319;48.974;8.462;2023-04-01T03:40:48;10.10;99.90
31747;DHT22;18319;48.974;8.462;2023-04-01T03:43:15;10.10;99.90
31747;DHT22;18319;48.974;8.462;2023-04-01T03:45:44;10.10;99.90
31747;DHT22;18319;48.974;8.462;2023-04-01T03:48:11;10.10;99.90
31747;DHT22;18319;48.974;8.462;2023-04-01T03:50:39;10.10;99.90
31747;DHT22;18319;48.974;8.462;2023-04-01T03:53:06;10.10;99.90
31747;DHT22;18319;48.974;8.462;2023-04-01T03:55:33;10.10;99.90
31747;DHT22;18319;48.974;8.462;2023-04-01T03:57:59;10.10;99.90
31747;DHT22;18319;48.974;8.462;2023-04-01T04:00:27;10.10;99.90
31747;DHT22;18319;48.974;8.462;2023-04-01T04:02:55;10.10;99.90
31747;DHT22;18319;48.974;8.462;2023-04-01T04:05:22;10.10;99.90
31747;DHT22;18319;48.974;8.462;2023-04-01T04:07:50;10.10;99.90
31747;DHT22;18319;48.974;8.462;2023-04-01T04:10:17;10.10;99.90
31747;DHT22;18319;48.974;8.462;2023-04-01T04:12:44;10.20;99.90
31747;DHT22;18319;48.974;8.462;2023-04-01T04:15:11;10.20;99.90
31747;DHT22;18319;48.974;8.462;2023-04-01T04:17:38;10.20;99.90
31747;DHT22;18319;48.974;8.462;2023-04-01T04:20:06;10.20;99.90
31747;DHT22;18319;48.974;8.462;2023-04-01T04:22:33;10.20;99.90
31747;DHT22;18319;48.974;8.462;2023-04-01T04:25:01;10.30;99.90
31747;DHT22;18319;48.974;8.462;2023-04-01T04:27:28;10.20;99.90
31747;DHT22;18319;48.974;8.462;2023-04-01T04:29:55;10.20;99.90
31747;DHT22;18319;48.974;8.462;2023-04-01T04:32:22;10.20;99.90
31747;DHT22;18319;48.974;8.462;2023-04-01T04:34:48;10.30;99.90
31747;DHT22;18319;48.974;8.462;2023-04-01T04:37:15;10.30;99.90
31747;DHT22;18319;48.974;8.462;2023-04-01T04:39:42;10.30;99.90
31747;DHT22;18319;48.974;8.462;2023-04-01T04:42:10;10.30;99.90
31747;DHT22;18319;48.974;8.462;2023-04-01T04:44:37;10.30;99.90
31747;DHT22;18319;48.974;8.462;2023-04-01T04:47:03;10.30;99.90
31747;DHT22;18319;48.974;8.462;2023-04-01T04:49:30;10.30;99.90
31747;DHT22;18319;48.974;8.462;2023-04-01T04:51:57;10.30;99.90
31747;DHT22;18319;48.974;8.462;2023-04-01T04:54:24;10.30;99.90
31747;DHT22;18319;48.974;8.462;2023-04-01T04:56:51;10.30;99.90
31747;DHT22;18319;48.974;8.462;2023-04-01T04:59:19;10.20;99.90
31747;DHT22;18319;48.974;8.462;2023-04-01T05:01:46;10.20;99.90
31747;DHT22;18319;48.974;8.462;2023-04-01T05:04:13;10.20;99.90
31747;DHT22;18319;48.974;8.462;2023-04-01T05:06:40;10.20;99.90
31747;DHT22;18319;48.974;8.462;2023-04-01T05:09:06;10.20;99.90
31747;DHT22;18319;48.974;8.462;2023-04-01T05:11:33;10.20;99.90
31747;DHT22;18319;48.974;8.462;2023-04-01T05:14:00;10.20;99.90
31747;DHT22;18319;48.974;8.462;2023-04-01T05:16:28;10.20;99.90
31747;DHT22;18319;48.974;8.462;2023-04-01T05:18:57;10.20;99.90
31747;DHT22;18319;48.974;8.462;2023-04-01T05:21:23;10.30;99.90
31747;DHT22;18319;48.974;8.462;2023-04-01T05:23:50;10.30;99.90
31747;DHT22;18319;48.974;8.462;2023-04-01T05:26:17;10.30;99.90
31747;DHT22;18319;48.974;8.462;2023-04-01T05:28:44;10.30;99.90
31747;DHT22;18319;48.974;8.462;2023-04-01T05:31:11;10.30;99.90
31747;DHT22;18319;48.974;8.462;2023-04-01T05:33:39;10.30;99.90
31747;DHT22;18319;48.974;8.462;2023-04-01T05:36:07;10.30;99.90
31747;DHT22;18319;48.974;8.462;2023-04-01T05:38:34;10.30;99.90
31747;DHT22;18319;48.974;8.462;2023-04-01T05:41:01;10.30;99.90
31747;DHT22;18319;48.974;8.462;2023-04-01T05:43:29;10.30;99.90
31747;DHT22;18319;48.974;8.462;2023-04-01T05:45:56;10.20;99.90
31747;DHT22;18319;48.974;8.462;2023-04-01T05:48:23;10.20;99.90
31747;DHT22;18319;48.974;8.462;2023-04-01T05:50:51;10.10;99.90
31747;DHT22;18319;48.974;8.462;2023-04-01T05:53:18;10.10;99.90
31747;DHT22;18319;48.974;8.462;2023-04-01T05:55:44;10.00;99.90
31747;DHT22;18319;48.974;8.462;2023-04-01T05:58:11;10.00;99.90
31747;DHT22;18319;48.974;8.462;2023-04-01T06:00:38;10.00;99.90
31747;DHT22;18319;48.974;8.462;2023-04-01T06:03:05;9.90;99.90
31747;DHT22;18319;48.974;8.462;2023-04-01T06:05:38;9.90;99.90
31747;DHT22;18319;48.974;8.462;2023-04-01T06:08:10;9.90;99.90
31747;DHT22;18319;48.974;8.462;2023-04-01T06:10:47;9.90;99.90
31747;DHT22;18319;48.974;8.462;2023-04-01T06:13:24;9.90;99.90
31747;DHT22;18319;48.974;8.462;2023-04-01T06:15:59;9.80;99.90
31747;DHT22;18319;48.974;8.462;2023-04-01T06:18:48;9.70;99.90
31747;DHT22;18319;48.974;8.462;2023-04-01T06:21:43;9.70;99.90
31747;DHT22;18319;48.974;8.462;2023-04-01T06:24:27;9.70;99.90
31747;DHT22;18319;48.974;8.462;2023-04-01T06:27:02;9.70;99.90
31747;DHT22;18319;48.974;8.462;2023-04-01T06:29:54;9.70;99.90
31747;DHT22;18319;48.974;8.462;2023-04-01T06:32:42;9.70;99.90
31747;DHT22;18319;48.974;8.462;2023-04-01T06:35:22;9.70;99.90
31747;DHT22;18319;48.974;8.462;2023-04-01T06:38:18;9.80;99.90
31747;DHT22;18319;48.974;8.462;2023-04-01T06:41:20;9.80;99.90
31747;DHT22;18319;48.974;8.462;2023-04-01T06:43:57;9.80;99.90
31747;DHT22;18319;48.974;8.462;2023-04-01T06:46:31;9.90;99.90
31747;DHT22;18319;48.974;8.462;2023-04-01T06:49:27;10.00;99.90
31747;DHT22;18319;48.974;8.462;2023-04-01T06:52:01;9.90;99.90
31747;DHT22;18319;48.974;8.462;2023-04-01T06:54:32;10.00;99.90
31747;DHT22;18319;48.974;8.462;2023-04-01T06:57:05;10.10;99.90
31747;DHT22;18319;48.974;8.462;2023-04-01T06:59:37;10.20;99.90
31747;DHT22;18319;48.974;8.462;2023-04-01T07:02:10;10.30;99.90
31747;DHT22;18319;48.974;8.462;2023-04-01T07:04:42;10.40;99.90
31747;DHT22;18319;48.974;8.462;2023-04-01T07:07:15;10.50;99.90
31747;DHT22;18319;48.974;8.462;2023-04-01T07:09:49;10.50;99.90
31747;DHT22;18319;48.974;8.462;2023-04-01T07:12:23;10.50;99.90
31747;DHT22;18319;48.974;8.462;2023-04-01T07:14:55;10.50;99.90
31747;DHT22;18319;48.974;8.462;2023-04-01T07:17:24;10.50;99.90
31747;DHT22;18319;48.974;8.462;2023-04-01T07:19:53;10.60;99.90
31747;DHT22;18319;48.974;8.462;2023-04-01T07:22:26;10.60;99.90
31747;DHT22;18319;48.974;8.462;2023-04-01T07:24:57;10.70;99.90
31747;DHT22;18319;48.974;8.462;2023-04-01T07:27:29;10.60;99.90
31747;DHT22;18319;48.974;8.462;2023-04-01T07:29:56;10.60;99.90
31747;DHT22;18319;48.974;8.462;2023-04-01T07:32:32;10.60;99.90
31747;DHT22;18319;48.974;8.462;2023-04-01T07:35:12;10.60;99.90
31747;DHT22;18319;48.974;8.462;2023-04-01T07:37:47;10.50;99.90
31747;DHT22;18319;48.974;8.462;2023-04-01T07:40:28;10.50;99.90
31747;DHT22;18319;48.974;8.462;2023-04-01T07:43:27;10.60;99.90
31747;DHT22;18319;48.974;8.462;2023-04-01T07:46:05;10.70;99.90
31747;DHT22;18319;48.974;8.462;2023-04-01T07:48:40;10.60;99.90
31747;DHT22;18319;48.974;8.462;2023-04-01T07:51:13;10.50;99.90
31747;DHT22;18319;48.974;8.462;2023-04-01T07:53:46;10.30;99.90
31747;DHT22;18319;48.974;8.462;2023-04-01T07:56:17;10.10;99.90
31747;DHT22;18319;48.974;8.462;2023-04-01T07:58:55;10.00;99.90
31747;DHT22;18319;48.974;8.462;2023-04-01T08:01:32;9.90;99.90
31747;DHT22;18319;48.974;8.462;2023-04-01T08:04:15;9.90;99.90
31747;DHT22;18319;48.974;8.462;2023-04-01T08:06:47;9.90;99.90
31747;DHT22;18319;48.974;8.462;2023-04-01T08:09:22;9.90;99.90
31747;DHT22;18319;48.974;8.462;2023-04-01T08:12:01;10.00;99.90
31747;DHT22;18319;48.974;8.462;2023-04-01T08:14:40;10.10;99.90
31747;DHT22;18319;48.974;8.462;2023-04-01T08:17:12;10.10;99.90
31747;DHT22;18319;48.974;8.462;2023-04-01T08:19:56;10.20;99.90
31747;DHT22;18319;48.974;8.462;2023-04-01T08:22:30;10.40;99.90
31747;DHT22;18319;48.974;8.462;2023-04-01T08:25:03;10.80;99.90
31747;DHT22;18319;48.974;8.462;2023-04-01T08:27:36;11.00;99.90
31747;DHT22;18319;48.974;8.462;2023-04-01T08:30:15;11.30;99.90
31747;DHT22;18319;48.974;8.462;2023-04-01T08:32:46;11.50;99.90
31747;DHT22;18319;48.974;8.462;2023-04-01T08:35:20;11.70;99.90
31747;DHT22;18319;48.974;8.462;2023-04-01T08:37:51;11.80;99.90
31747;DHT22;18319;48.974;8.462;2023-04-01T08:40:43;11.70;99.90
31747;DHT22;18319;48.974;8.462;2023-04-01T08:43:23;11.90;99.90
31747;DHT22;18319;48.974;8.462;2023-04-01T08:46:13;12.10;99.90
31747;DHT22;18319;48.974;8.462;2023-04-01T08:49:04;12.30;99.90
31747;DHT22;18319;48.974;8.462;2023-04-01T08:51:49;12.40;99.90
31747;DHT22;18319;48.974;8.462;2023-04-01T08:54:40;12.40;99.90
31747;DHT22;18319;48.974;8.462;2023-04-01T08:57:15;12.30;99.90
31747;DHT22;18319;48.974;8.462;2023-04-01T08:59:57;12.30;99.90
31747;DHT22;18319;48.974;8.462;2023-04-01T09:05:38;12.30;99.90
31747;DHT22;18319;48.974;8.462;2023-04-01T09:08:27;12.50;99.90
31747;DHT22;18319;48.974;8.462;2023-04-01T09:11:04;12.50;99.90
31747;DHT22;18319;48.974;8.462;2023-04-01T09:13:48;12.40;99.90
31747;DHT22;18319;48.974;8.462;2023-04-01T09:16:30;12.50;99.90
31747;DHT22;18319;48.974;8.462;2023-04-01T09:19:24;12.50;99.90
31747;DHT22;18319;48.974;8.462;2023-04-01T09:25:12;12.20;99.90
31747;DHT22;18319;48.974;8.462;2023-04-01T09:27:44;12.00;99.90
31747;DHT22;18319;48.974;8.462;2023-04-01T09:30:33;12.00;99.90
31747;DHT22;18319;48.974;8.462;2023-04-01T09:33:22;11.90;99.90
31747;DHT22;18319;48.974;8.462;2023-04-01T09:36:03;11.90;99.90
31747;DHT22;18319;48.974;8.462;2023-04-01T09:38:39;11.90;99.90
31747;DHT22;18319;48.974;8.462;2023-04-01T09:41:20;11.90;99.90
31747;DHT22;18319;48.974;8.462;2023-04-01T09:44:02;11.90;99.90
31747;DHT22;18319;48.974;8.462;2023-04-01T09:46:42;11.90;99.90
31747;DHT22;18319;48.974;8.462;2023-04-01T09:49:53;11.90;99.90
31747;DHT22;18319;48.974;8.462;2023-04-01T09:52:29;11.90;99.90
31747;DHT22;18319;48.974;8.462;2023-04-01T09:55:14;12.10;99.90
31747;DHT22;18319;48.974;8.462;2023-04-01T10:07:23;11.90;99.90
31747;DHT22;18319;48.974;8.462;2023-04-01T10:10:22;11.80;99.90
31747;DHT22;18319;48.974;8.462;2023-04-01T10:13:11;11.90;99.90
31747;DHT22;18319;48.974;8.462;2023-04-01T10:19:02;11.70;99.90
31747;DHT22;18319;48.974;8.462;2023-04-01T10:31:17;12.20;99.90
31747;DHT22;18319;48.974;8.462;2023-04-01T10:34:10;12.30;99.90
31747;DHT22;18319;48.974;8.462;2023-04-01T10:36:53;12.40;99.90
31747;DHT22;18319;48.974;8.462;2023-04-01T10:39:42;12.20;99.90
31747;DHT22;18319;48.974;8.462;2023-04-01T10:42:52;11.90;99.90
31747;DHT22;18319;48.974;8.462;2023-04-01T10:45:48;11.80;99.90
31747;DHT22;18319;48.974;8.462;2023-04-01T10:51:45;11.90;99.90
31747;DHT22;18319;48.974;8.462;2023-04-01T10:54:22;11.80;99.90
31747;DHT22;18319;48.974;8.462;2023-04-01T10:56:56;11.70;99.90
31747;DHT22;18319;48.974;8.462;2023-04-01T11:00:03;11.70;99.90
31747;DHT22;18319;48.974;8.462;2023-04-01T11:09:39;11.80;99.90
31747;DHT22;18319;48.974;8.462;2023-04-01T11:21:46;12.40;99.90
31747;DHT22;18319;48.974;8.462;2023-04-01T11:27:29;12.40;99.90
31747;DHT22;18319;48.974;8.462;2023-04-01T11:30:14;12.40;99.90
31747;DHT22;18319;48.974;8.462;2023-04-01T11:33:02;12.40;99.90
31747;DHT22;18319;48.974;8.462;2023-04-01T11:35:52;12.40;99.90
31747;DHT22;18319;48.974;8.462;2023-04-01T11:38:48;12.30;99.90
31747;DHT22;18319;48.974;8.462;2023-04-01T11:41:26;12.20;99.90
31747;DHT22;18319;48.974;8.462;2023-04-01T11:44:12;12.20;99.90
31747;DHT22;18319;48.974;8.462;2023-04-01T11:46:52;12.20;99.90
31747;DHT22;18319;48.974;8.462;2023-04-01T11:49:36;12.20;99.90
31747;DHT22;18319;48.974;8.462;2023-04-01T11:52:25;12.30;99.90
31747;DHT22;18319;48.974;8.462;2023-04-01T11:55:19;12.30;99.90
31747;DHT22;18319;48.974;8.462;2023-04-01T12:01:29;12.50;99.90
31747;DHT22;18319;48.974;8.462;2023-04-01T12:06:54;12.70;99.90
31747;DHT22;18319;48.974;8.462;2023-04-01T12:09:33;12.80;99.90
31747;DHT22;18319;48.974;8.462;2023-04-01T12:12:15;12.90;99.90
31747;DHT22;18319;48.974;8.462;2023-04-01T12:14:50;12.90;99.90
31747;DHT22;18319;48.974;8.462;2023-04-01T12:17:30;12.80;99.90
31747;DHT22;18319;48.974;8.462;2023-04-01T12:20:01;12.30;99.90
31747;DHT22;18319;48.974;8.462;2023-04-01T12:22:47;12.10;99.90
31747;DHT22;18319;48.974;8.462;2023-04-01T12:25:33;11.90;99.90
31747;DHT22;18319;48.974;8.462;2023-04-01T12:28:13;11.50;99.90
31747;DHT22;18319;48.974;8.462;2023-04-01T12:30:58;11.40;99.90
31747;DHT22;18319;48.974;8.462;2023-04-01T12:33:56;11.50;99.90
31747;DHT22;18319;48.974;8.462;2023-04-01T12:36:40;11.60;99.90
31747;DHT22;18319;48.974;8.462;2023-04-01T12:39:33;11.50;99.90
31747;DHT22;18319;48.974;8.462;2023-04-01T12:42:11;11.50;99.90
31747;DHT22;18319;48.974;8.462;2023-04-01T12:45:04;11.50;99.90
31747;DHT22;18319;48.974;8.462;2023-04-01T12:47:51;11.60;99.90
31747;DHT22;18319;48.974;8.462;2023-04-01T12:50:31;11.60;99.90
31747;DHT22;18319;48.974;8.462;2023-04-01T12:53:14;11.50;99.90
31747;DHT22;18319;48.974;8.462;2023-04-01T12:55:43;11.30;99.90
31747;DHT22;18319;48.974;8.462;2023-04-01T12:58:41;11.20;99.90
31747;DHT22;18319;48.974;8.462;2023-04-01T13:01:38;11.10;99.90
31747;DHT22;18319;48.974;8.462;2023-04-01T13:04:34;10.90;99.90
31747;DHT22;18319;48.974;8.462;2023-04-01T13:07:29;10.80;99.90
31747;DHT22;18319;48.974;8.462;2023-04-01T13:10:04;11.00;99.90
31747;DHT22;18319;48.974;8.462;2023-04-01T13:13:00;11.00;99.90
31747;DHT22;18319;48.974;8.462;2023-04-01T13:15:34;11.10;99.90
31747;DHT22;18319;48.974;8.462;2023-04-01T13:18:18;11.10;99.90
31747;DHT22;18319;48.974;8.462;2023-04-01T13:20:54;11.10;99.90
31747;DHT22;18319;48.974;8.462;2023-04-01T13:23:34;11.20;99.90
31747;DHT22;18319;48.974;8.462;2023-04-01T13:26:10;11.30;99.90
31747;DHT22;18319;48.974;8.462;2023-04-01T13:28:42;11.60;99.90
31747;DHT22;18319;48.974;8.462;2023-04-01T13:31:24;11.70;99.90
31747;DHT22;18319;48.974;8.462;2023-04-01T13:34:04;11.90;99.90
31747;DHT22;18319;48.974;8.462;2023-04-01T13:36:39;11.80;99.90
31747;DHT22;18319;48.974;8.462;2023-04-01T13:39:37;11.80;99.90
31747;DHT22;18319;48.974;8.462;2023-04-01T13:42:18;11.80;99.90
31747;DHT22;18319;48.974;8.462;2023-04-01T13:44:49;11.70;99.90
31747;DHT22;18319;48.974;8.462;2023-04-01T13:47:29;11.70;99.90
31747;DHT22;18319;48.974;8.462;2023-04-01T13:50:16;11.70;99.90
31747;DHT22;18319;48.974;8.462;2023-04-01T13:53:16;11.70;99.90
31747;DHT22;18319;48.974;8.462;2023-04-01T13:55:54;11.50;99.90
31747;DHT22;18319;48.974;8.462;2023-04-01T13:58:49;11.50;99.90
31747;DHT22;18319;48.974;8.462;2023-04-01T14:01:25;11.50;99.90
31747;DHT22;18319;48.974;8.462;2023-04-01T14:04:29;11.70;99.90
31747;DHT22;18319;48.974;8.462;2023-04-01T14:07:18;11.80;99.90
31747;DHT22;18319;48.974;8.462;2023-04-01T14:10:03;11.90;99.90
31747;DHT22;18319;48.974;8.462;2023-04-01T14:12:36;11.80;99.90
31747;DHT22;18319;48.974;8.462;2023-04-01T14:15:29;11.60;99.90
31747;DHT22;18319;48.974;8.462;2023-04-01T14:21:13;11.50;99.90
31747;DHT22;18319;48.974;8.462;2023-04-01T14:23:58;11.50;99.90
31747;DHT22;18319;48.974;8.462;2023-04-01T14:29:38;11.40;99.90
31747;DHT22;18319;48.974;8.462;2023-04-01T14:32:12;11.40;99.90
31747;DHT22;18319;48.974;8.462;2023-04-01T14:34:53;11.50;99.90
31747;DHT22;18319;48.974;8.462;2023-04-01T14:37:36;11.60;99.90
31747;DHT22;18319;48.974;8.462;2023-04-01T14:40:27;11.60;99.90
31747;DHT22;18319;48.974;8.462;2023-04-01T14:43:20;11.60;99.90
31747;DHT22;18319;48.974;8.462;2023-04-01T14:46:17;11.60;99.90
31747;DHT22;18319;48.974;8.462;2023-04-01T14:48:53;11.50;99.90
31747;DHT22;18319;48.974;8.462;2023-04-01T14:51:23;11.50;99.90
31747;DHT22;18319;48.974;8.462;2023-04-01T14:54:00;11.40;99.90
31747;DHT22;18319;48.974;8.462;2023-04-01T14:56:38;11.40;99.90
31747;DHT22;18319;48.974;8.462;2023-04-01T14:59:10;11.40;99.90
31747;DHT22;18319;48.974;8.462;2023-04-01T15:01:43;11.50;99.90
31747;DHT22;18319;48.974;8.462;2023-04-01T15:04:27;11.60;99.90
31747;DHT22;18319;48.974;8.462;2023-04-01T15:07:07;11.60;99.90
31747;DHT22;18319;48.974;8.462;2023-04-01T15:09:42;11.60;99.90
31747;DHT22;18319;48.974;8.462;2023-04-01T15:12:23;11.50;99.90
31747;DHT22;18319;48.974;8.462;2023-04-01T15:15:03;11.50;99.90
31747;DHT22;18319;48.974;8.462;2023-04-01T15:17:47;11.40;99.90
31747;DHT22;18319;48.974;8.462;2023-04-01T15:20:29;11.40;99.90
31747;DHT22;18319;48.974;8.462;2023-04-01T15:23:10;11.40;99.90
31747;DHT22;18319;48.974;8.462;2023-04-01T15:25:53;11.40;99.90
31747;DHT22;18319;48.974;8.462;2023-04-01T15:28:32;11.50;99.90
31747;DHT22;18319;48.974;8.462;2023-04-01T15:31:09;11.50;99.90
31747;DHT22;18319;48.974;8.462;2023-04-01T15:33:51;11.50;99.90
31747;DHT22;18319;48.974;8.462;2023-04-01T15:36:29;11.50;99.90
31747;DHT22;18319;48.974;8.462;2023-04-01T15:39:09;11.50;99.90
31747;DHT22;18319;48.974;8.462;2023-04-01T15:41:46;11.50;99.90
31747;DHT22;18319;48.974;8.462;2023-04-01T15:44:41;11.50;99.90
31747;DHT22;18319;48.974;8.462;2023-04-01T15:53:54;11.30;99.90
31747;DHT22;18319;48.974;8.462;2023-04-01T15:56:46;11.20;99.90
31747;DHT22;18319;48.974;8.462;2023-04-01T15:59:27;11.20;99.90
31747;DHT22;18319;48.974;8.462;2023-04-01T16:02:02;11.10;99.90
31747;DHT22;18319;48.974;8.462;2023-04-01T16:04:49;11.10;99.90
31747;DHT22;18319;48.974;8.462;2023-04-01T16:07:36;11.10;99.90
31747;DHT22;18319;48.974;8.462;2023-04-01T16:10:17;11.00;99.90
31747;DHT22;18319;48.974;8.462;2023-04-01T16:12:58;11.10;99.90
31747;DHT22;18319;48.974;8.462;2023-04-01T16:15:37;11.10;99.90
31747;DHT22;18319;48.974;8.462;2023-04-01T16:18:25;11.10;99.90
31747;DHT22;18319;48.974;8.462;2023-04-01T16:20:56;11.10;99.90
31747;DHT22;18319;48.974;8.462;2023-04-01T16:23:30;11.10;99.90
31747;DHT22;18319;48.974;8.462;2023-04-01T16:26:05;11.10;99.90
31747;DHT22;18319;48.974;8.462;2023-04-01T16:28:36;11.20;99.90
31747;DHT22;18319;48.974;8.462;2023-04-01T16:31:07;11.10;99.90
31747;DHT22;18319;48.974;8.462;2023-04-01T16:33:44;11.10;99.90
31747;DHT22;18319;48.974;8.462;2023-04-01T16:36:22;11.10;99.90
31747;DHT22;18319;48.974;8.462;2023-04-01T16:39:06;11.10;99.90
31747;DHT22;18319;48.974;8.462;2023-04-01T16:41:36;11.10;99.90
31747;DHT22;18319;48.974;8.462;2023-04-01T16:44:14;11.00;99.90
31747;DHT22;18319;48.974;8.462;2023-04-01T16:46:46;10.90;99.90
31747;DHT22;18319;48.974;8.462;2023-04-01T16:49:32;10.90;99.90
31747;DHT22;18319;48.974;8.462;2023-04-01T16:52:14;10.80;99.90
31747;DHT22;18319;48.974;8.462;2023-04-01T16:54:47;10.80;99.90
31747;DHT22;18319;48.974;8.462;2023-04-01T16:57:25;10.70;99.90
31747;DHT22;18319;48.974;8.462;2023-04-01T16:59:56;10.70;99.90
31747;DHT22;18319;48.974;8.462;2023-04-01T17:02:28;10.60;99.90
31747;DHT22;18319;48.974;8.462;2023-04-01T17:05:01;10.60;99.90
31747;DHT22;18319;48.974;8.462;2023-04-01T17:07:38;10.50;99.90
31747;DHT22;18319;48.974;8.462;2023-04-01T17:10:22;10.50;99.90
31747;DHT22;18319;48.974;8.462;2023-04-01T17:13:00;10.40;99.90
31747;DHT22;18319;48.974;8.462;2023-04-01T17:15:35;10.30;99.90
31747;DHT22;18319;48.974;8.462;2023-04-01T17:18:09;10.30;99.90
31747;DHT22;18319;48.974;8.462;2023-04-01T17:20:43;10.30;99.90
31747;DHT22;18319;48.974;8.462;2023-04-01T17:23:19;10.20;99.90
31747;DHT22;18319;48.974;8.462;2023-04-01T17:25:55;10.20;99.90
31747;DHT22;18319;48.974;8.462;2023-04-01T17:28:37;10.10;99.90
31747;DHT22;18319;48.974;8.462;2023-04-01T17:31:15;10.10;99.90
31747;DHT22;18319;48.974;8.462;2023-04-01T17:33:57;10.10;99.90
31747;DHT22;18319;48.974;8.462;2023-04-01T17:36:40;10.10;99.90
31747;DHT22;18319;48.974;8.462;2023-04-01T17:39:45;10.10;99.90
31747;DHT22;18319;48.974;8.462;2023-04-01T17:42:15;10.00;99.90